sensor_id;sensor_type;location;lat;lon;timestamp;pressure;altitude;pressure_sealevel;temperature;humidity
79362;BME280;68830;47.566;19.012;2023-10-09T00:01:37;100969.06;;;10.84;56.55
79362;BME280;68830;47.566;19.012;2023-10-09T00:04:40;100958.56;;;10.94;56.73
79362;BME280;68830;47.566;19.012;2023-10-09T00:07:45;100942.66;;;10.94;58.13
79362;BME280;68830;47.566;19.012;2023-10-09T00:10:49;100938.47;;;10.91;59.40
79362;BME280;68830;47.566;19.012;2023-10-09T00:13:56;100948.22;;;10.91;57.92
79362;BME280;68830;47.566;19.012;2023-10-09T00:17:02;100951.44;;;10.94;57.64
79362;BME280;68830;47.566;19.012;2023-10-09T00:20:14;100954.56;;;10.99;56.13
79362;BME280;68830;47.566;19.012;2023-10-09T00:23:25;100947.44;;;11.00;57.98
79362;BME280;68830;47.566;19.012;2023-10-09T00:26:28;100950.22;;;10.98;56.14
79362;BME280;68830;47.566;19.012;2023-10-09T00:29:33;100934.81;;;11.03;58.04
79362;BME280;68830;47.566;19.012;2023-10-09T00:32:38;100943.47;;;11.05;57.41
79362;BME280;68830;47.566;19.012;2023-10-09T00:35:47;100937.91;;;11.08;56.31
79362;BME280;68830;47.566;19.012;2023-10-09T00:38:56;100932.91;;;11.15;57.30
79362;BME280;68830;47.566;19.012;2023-10-09T00:42:03;100934.16;;;11.11;58.28
79362;BME280;68830;47.566;19.012;2023-10-09T00:45:08;100935.13;;;11.10;58.85
79362;BME280;68830;47.566;19.012;2023-10-09T00:48:12;100924.00;;;11.16;58.28
79362;BME280;68830;47.566;19.012;2023-10-09T00:51:25;100930.41;;;11.14;58.13
79362;BME280;68830;47.566;19.012;2023-10-09T00:54:28;100933.88;;;11.14;58.56
79362;BME280;68830;47.566;19.012;2023-10-09T00:57:45;100927.97;;;11.22;59.64
79362;BME280;68830;47.566;19.012;2023-10-09T01:01:10;100922.38;;;11.25;57.13
79362;BME280;68830;47.566;19.012;2023-10-09T01:04:18;100933.25;;;11.22;58.91
79362;BME280;68830;47.566;19.012;2023-10-09T01:07:21;100934.22;;;11.21;58.94
79362;BME280;68830;47.566;19.012;2023-10-09T01:10:28;100928.78;;;11.22;60.12
79362;BME280;68830;47.566;19.012;2023-10-09T01:13:38;100937.00;;;11.19;61.65
79362;BME280;68830;47.566;19.012;2023-10-09T01:16:43;100932.78;;;11.17;58.91
79362;BME280;68830;47.566;19.012;2023-10-09T01:19:45;100934.47;;;11.18;59.21
79362;BME280;68830;47.566;19.012;2023-10-09T01:22:49;100937.47;;;11.24;60.04
79362;BME280;68830;47.566;19.012;2023-10-09T01:25:53;100936.63;;;11.24;62.19
79362;BME280;68830;47.566;19.012;2023-10-09T01:28:55;100936.63;;;11.24;63.92
79362;BME280;68830;47.566;19.012;2023-10-09T01:32:00;100932.16;;;11.24;62.02
79362;BME280;68830;47.566;19.012;2023-10-09T01:35:06;100941.56;;;11.17;61.10
79362;BME280;68830;47.566;19.012;2023-10-09T01:38:22;100931.09;;;11.16;60.11
79362;BME280;68830;47.566;19.012;2023-10-09T01:41:43;100931.50;;;11.11;59.11
79362;BME280;68830;47.566;19.012;2023-10-09T01:44:49;100928.13;;;11.09;59.75
79362;BME280;68830;47.566;19.012;2023-10-09T01:47:52;100941.84;;;11.14;59.20
79362;BME280;68830;47.566;19.012;2023-10-09T01:50:56;100937.63;;;11.12;59.02
79362;BME280;68830;47.566;19.012;2023-10-09T01:53:58;100941.47;;;11.19;60.36
79362;BME280;68830;47.566;19.012;2023-10-09T01:57:01;100950.84;;;11.23;59.98
79362;BME280;68830;47.566;19.012;2023-10-09T02:00:13;100952.78;;;11.21;59.65
79362;BME280;68830;47.566;19.012;2023-10-09T02:03:26;100952.31;;;11.16;58.32
79362;BME280;68830;47.566;19.012;2023-10-09T02:06:31;100950.38;;;11.18;56.78
79362;BME280;68830;47.566;19.012;2023-10-09T02:09:34;100942.94;;;11.12;57.50
79362;BME280;68830;47.566;19.012;2023-10-09T02:12:37;100937.25;;;11.16;58.84
79362;BME280;68830;47.566;19.012;2023-10-09T02:15:40;100952.78;;;11.21;57.27
79362;BME280;68830;47.566;19.012;2023-10-09T02:18:45;100953.38;;;11.24;56.68
79362;BME280;68830;47.566;19.012;2023-10-09T02:21:59;100937.31;;;11.26;56.28
79362;BME280;68830;47.566;19.012;2023-10-09T02:25:03;100926.72;;;11.26;57.04
79362;BME280;68830;47.566;19.012;2023-10-09T02:28:08;100917.94;;;11.25;60.17
79362;BME280;68830;47.566;19.012;2023-10-09T02:31:11;100915.41;;;11.24;59.71
79362;BME280;68830;47.566;19.012;2023-10-09T02:34:13;100923.50;;;11.22;60.95
79362;BME280;68830;47.566;19.012;2023-10-09T02:37:23;100925.31;;;11.22;60.75
79362;BME280;68830;47.566;19.012;2023-10-09T02:40:27;100904.34;;;11.19;63.78
79362;BME280;68830;47.566;19.012;2023-10-09T02:43:35;100898.22;;;11.18;62.40
79362;BME280;68830;47.566;19.012;2023-10-09T02:46:46;100895.03;;;11.24;64.43
79362;BME280;68830;47.566;19.012;2023-10-09T02:49:48;100892.66;;;11.21;62.48
79362;BME280;68830;47.566;19.012;2023-10-09T02:52:51;100880.75;;;11.36;56.94
79362;BME280;68830;47.566;19.012;2023-10-09T02:56:01;100890.03;;;11.52;55.26
79362;BME280;68830;47.566;19.012;2023-10-09T02:59:17;100885.59;;;11.62;54.88
79362;BME280;68830;47.566;19.012;2023-10-09T03:02:23;100873.91;;;11.64;53.49
79362;BME280;68830;47.566;19.012;2023-10-09T03:05:26;100872.97;;;11.75;52.50
79362;BME280;68830;47.566;19.012;2023-10-09T03:08:30;100854.25;;;11.77;53.19
79362;BME280;68830;47.566;19.012;2023-10-09T03:11:32;100870.53;;;11.83;51.96
79362;BME280;68830;47.566;19.012;2023-10-09T03:14:39;100878.63;;;11.91;51.14
79362;BME280;68830;47.566;19.012;2023-10-09T03:17:43;100869.13;;;11.89;50.76
79362;BME280;68830;47.566;19.012;2023-10-09T03:20:45;100869.00;;;11.90;49.99
79362;BME280;68830;47.566;19.012;2023-10-09T03:23:48;100867.03;;;11.92;50.49
79362;BME280;68830;47.566;19.012;2023-10-09T03:26:53;100873.19;;;11.93;50.46
79362;BME280;68830;47.566;19.012;2023-10-09T03:29:59;100877.84;;;12.01;49.15
79362;BME280;68830;47.566;19.012;2023-10-09T03:33:02;100871.00;;;11.98;49.97
79362;BME280;68830;47.566;19.012;2023-10-09T03:36:06;100893.50;;;12.04;50.37
79362;BME280;68830;47.566;19.012;2023-10-09T03:39:09;100895.31;;;12.03;50.56
79362;BME280;68830;47.566;19.012;2023-10-09T03:42:35;100877.28;;;12.07;49.86
79362;BME280;68830;47.566;19.012;2023-10-09T03:45:39;100869.31;;;12.07;50.03
79362;BME280;68830;47.566;19.012;2023-10-09T03:48:51;100860.53;;;12.06;50.36
79362;BME280;68830;47.566;19.012;2023-10-09T03:51:59;100882.31;;;12.10;51.56
79362;BME280;68830;47.566;19.012;2023-10-09T03:55:01;100871.47;;;12.13;49.91
79362;BME280;68830;47.566;19.012;2023-10-09T03:58:04;100871.97;;;12.07;51.41
79362;BME280;68830;47.566;19.012;2023-10-09T04:01:09;100855.66;;;12.11;51.57
79362;BME280;68830;47.566;19.012;2023-10-09T04:04:16;100851.88;;;12.14;49.03
79362;BME280;68830;47.566;19.012;2023-10-09T04:07:19;100867.38;;;12.09;49.15
79362;BME280;68830;47.566;19.012;2023-10-09T04:10:23;100864.47;;;12.12;48.76
79362;BME280;68830;47.566;19.012;2023-10-09T04:13:44;100860.13;;;12.20;47.41
79362;BME280;68830;47.566;19.012;2023-10-09T04:16:49;100866.28;;;12.21;47.66
79362;BME280;68830;47.566;19.012;2023-10-09T04:19:54;100862.66;;;12.22;47.43
79362;BME280;68830;47.566;19.012;2023-10-09T04:23:15;100853.00;;;12.21;47.72
79362;BME280;68830;47.566;19.012;2023-10-09T04:26:18;100852.59;;;12.16;47.49
79362;BME280;68830;47.566;19.012;2023-10-09T04:29:23;100845.03;;;12.21;47.43
79362;BME280;68830;47.566;19.012;2023-10-09T04:32:30;100853.31;;;12.27;47.06
79362;BME280;68830;47.566;19.012;2023-10-09T04:35:33;100838.75;;;12.22;46.70
79362;BME280;68830;47.566;19.012;2023-10-09T04:38:35;100834.13;;;12.24;45.69
79362;BME280;68830;47.566;19.012;2023-10-09T04:41:38;100828.56;;;12.27;45.19
79362;BME280;68830;47.566;19.012;2023-10-09T04:44:43;100840.03;;;12.27;45.36
79362;BME280;68830;47.566;19.012;2023-10-09T04:48:05;100835.97;;;12.33;43.97
79362;BME280;68830;47.566;19.012;2023-10-09T04:51:08;100839.06;;;12.29;44.72
79362;BME280;68830;47.566;19.012;2023-10-09T04:54:33;100831.38;;;12.35;44.66
79362;BME280;68830;47.566;19.012;2023-10-09T04:57:42;100819.63;;;12.28;46.45
79362;BME280;68830;47.566;19.012;2023-10-09T05:00:45;100816.97;;;12.28;46.29
79362;BME280;68830;47.566;19.012;2023-10-09T05:04:06;100810.25;;;12.34;45.03
79362;BME280;68830;47.566;19.012;2023-10-09T05:07:21;100805.34;;;12.39;44.90
79362;BME280;68830;47.566;19.012;2023-10-09T05:10:38;100812.91;;;12.34;44.75
79362;BME280;68830;47.566;19.012;2023-10-09T05:13:55;100825.50;;;12.32;44.46
79362;BME280;68830;47.566;19.012;2023-10-09T05:17:13;100811.09;;;12.34;45.38
79362;BME280;68830;47.566;19.012;2023-10-09T05:20:19;100804.25;;;12.32;44.77
79362;BME280;68830;47.566;19.012;2023-10-09T05:23:27;100804.53;;;12.38;43.77
79362;BME280;68830;47.566;19.012;2023-10-09T05:26:29;100786.91;;;12.37;44.00
79362;BME280;68830;47.566;19.012;2023-10-09T05:29:50;100807.03;;;12.40;42.92
79362;BME280;68830;47.566;19.012;2023-10-09T05:33:01;100816.13;;;12.37;44.52
79362;BME280;68830;47.566;19.012;2023-10-09T05:36:23;100816.28;;;12.36;43.28
79362;BME280;68830;47.566;19.012;2023-10-09T05:39:25;100818.94;;;12.26;44.30
79362;BME280;68830;47.566;19.012;2023-10-09T05:42:43;100834.03;;;12.25;44.18
79362;BME280;68830;47.566;19.012;2023-10-09T05:45:46;100848.97;;;12.26;43.86
79362;BME280;68830;47.566;19.012;2023-10-09T05:48:48;100827.59;;;12.28;44.30
79362;BME280;68830;47.566;19.012;2023-10-09T05:51:57;100805.94;;;12.33;43.72
79362;BME280;68830;47.566;19.012;2023-10-09T05:55:21;100800.88;;;12.39;43.78
79362;BME280;68830;47.566;19.012;2023-10-09T05:58:26;100805.81;;;12.44;43.63
79362;BME280;68830;47.566;19.012;2023-10-09T06:01:47;100808.31;;;12.45;42.45
79362;BME280;68830;47.566;19.012;2023-10-09T06:04:51;100765.69;;;10.76;48.17
79362;BME280;68830;47.566;19.012;2023-10-09T06:07:58;100751.59;;;10.55;49.13
79362;BME280;68830;47.566;19.012;2023-10-09T06:11:09;100747.53;;;10.51;48.63
79362;BME280;68830;47.566;19.012;2023-10-09T06:14:29;100741.41;;;10.51;48.23
79362;BME280;68830;47.566;19.012;2023-10-09T06:17:31;100735.00;;;10.53;48.83
79362;BME280;68830;47.566;19.012;2023-10-09T06:20:46;100714.91;;;10.51;48.93
79362;BME280;68830;47.566;19.012;2023-10-09T06:24:08;100717.44;;;10.52;47.81
79362;BME280;68830;47.566;19.012;2023-10-09T06:27:17;100729.78;;;10.63;48.21
79362;BME280;68830;47.566;19.012;2023-10-09T06:30:34;100728.81;;;10.64;47.58
79362;BME280;68830;47.566;19.012;2023-10-09T06:33:37;100790.34;;;11.19;45.71
79362;BME280;68830;47.566;19.012;2023-10-09T06:36:59;100788.38;;;11.82;44.94
79362;BME280;68830;47.566;19.012;2023-10-09T06:43:32;100786.91;;;12.37;42.25
79362;BME280;68830;47.566;19.012;2023-10-09T06:46:38;100775.72;;;12.53;42.14
79362;BME280;68830;47.566;19.012;2023-10-09T06:49:46;100768.72;;;12.62;40.87
79362;BME280;68830;47.566;19.012;2023-10-09T06:53:08;100767.16;;;12.69;40.86
79362;BME280;68830;47.566;19.012;2023-10-09T06:56:14;100769.81;;;12.78;41.10
79362;BME280;68830;47.566;19.012;2023-10-09T06:59:31;100754.41;;;12.92;39.72
79362;BME280;68830;47.566;19.012;2023-10-09T07:02:45;100732.25;;;12.15;41.79
79362;BME280;68830;47.566;19.012;2023-10-09T07:05:50;100738.19;;;11.29;44.59
79362;BME280;68830;47.566;19.012;2023-10-09T07:09:07;100725.84;;;11.08;45.74
79362;BME280;68830;47.566;19.012;2023-10-09T07:12:11;100730.88;;;11.12;45.51
79362;BME280;68830;47.566;19.012;2023-10-09T07:15:22;100729.25;;;11.20;45.72
79362;BME280;68830;47.566;19.012;2023-10-09T07:18:43;100724.91;;;11.19;45.89
79362;BME280;68830;47.566;19.012;2023-10-09T07:21:51;100710.41;;;11.23;45.77
79362;BME280;68830;47.566;19.012;2023-10-09T07:24:56;100693.63;;;11.13;45.68
79362;BME280;68830;47.566;19.012;2023-10-09T07:28:00;100671.16;;;11.17;46.02
79362;BME280;68830;47.566;19.012;2023-10-09T07:31:05;100654.88;;;11.31;46.67
79362;BME280;68830;47.566;19.012;2023-10-09T07:34:11;100651.53;;;11.29;45.56
79362;BME280;68830;47.566;19.012;2023-10-09T07:37:45;100638.31;;;11.39;45.54
79362;BME280;68830;47.566;19.012;2023-10-09T07:40:52;100655.34;;;11.56;45.97
79362;BME280;68830;47.566;19.012;2023-10-09T07:44:22;100646.00;;;11.61;45.50
79362;BME280;68830;47.566;19.012;2023-10-09T07:47:38;100632.44;;;11.45;45.66
79362;BME280;68830;47.566;19.012;2023-10-09T07:50:59;100627.16;;;11.74;45.32
79362;BME280;68830;47.566;19.012;2023-10-09T07:54:01;100644.34;;;11.70;45.51
79362;BME280;68830;47.566;19.012;2023-10-09T07:57:10;100641.53;;;11.62;45.95
79362;BME280;68830;47.566;19.012;2023-10-09T08:00:19;100646.41;;;11.47;45.55
79362;BME280;68830;47.566;19.012;2023-10-09T08:04:00;100645.31;;;11.50;45.14
79362;BME280;68830;47.566;19.012;2023-10-09T08:07:16;100632.03;;;11.50;46.38
79362;BME280;68830;47.566;19.012;2023-10-09T08:10:42;100622.00;;;11.73;47.21
79362;BME280;68830;47.566;19.012;2023-10-09T08:14:02;100628.00;;;11.75;46.81
79362;BME280;68830;47.566;19.012;2023-10-09T08:17:06;100621.72;;;11.66;46.74
79362;BME280;68830;47.566;19.012;2023-10-09T08:20:30;100626.84;;;11.48;45.66
79362;BME280;68830;47.566;19.012;2023-10-09T08:23:52;100619.88;;;11.37;44.96
79362;BME280;68830;47.566;19.012;2023-10-09T08:26:55;100611.09;;;11.37;46.41
79362;BME280;68830;47.566;19.012;2023-10-09T08:30:17;100618.19;;;11.46;47.19
79362;BME280;68830;47.566;19.012;2023-10-09T08:33:29;100615.44;;;11.57;44.65
79362;BME280;68830;47.566;19.012;2023-10-09T08:36:47;100619.75;;;11.58;45.31
79362;BME280;68830;47.566;19.012;2023-10-09T08:39:55;100601.59;;;11.73;46.46
79362;BME280;68830;47.566;19.012;2023-10-09T08:43:06;100596.72;;;11.78;46.18
79362;BME280;68830;47.566;19.012;2023-10-09T08:46:10;100595.19;;;11.76;45.85
79362;BME280;68830;47.566;19.012;2023-10-09T08:49:16;100601.78;;;11.81;45.57
79362;BME280;68830;47.566;19.012;2023-10-09T08:52:19;100603.59;;;11.90;46.60
79362;BME280;68830;47.566;19.012;2023-10-09T08:55:22;100592.66;;;12.13;46.32
79362;BME280;68830;47.566;19.012;2023-10-09T08:58:24;100584.03;;;12.01;45.11
79362;BME280;68830;47.566;19.012;2023-10-09T09:01:44;100567.50;;;12.07;44.44
79362;BME280;68830;47.566;19.012;2023-10-09T09:04:48;100554.44;;;12.33;45.08
79362;BME280;68830;47.566;19.012;2023-10-09T09:07:52;100548.81;;;12.46;44.61
79362;BME280;68830;47.566;19.012;2023-10-09T09:10:58;100563.75;;;12.56;44.62
79362;BME280;68830;47.566;19.012;2023-10-09T09:14:13;100569.75;;;12.59;43.08
79362;BME280;68830;47.566;19.012;2023-10-09T09:17:22;100559.47;;;12.73;43.42
79362;BME280;68830;47.566;19.012;2023-10-09T09:20:27;100559.69;;;12.52;42.27
79362;BME280;68830;47.566;19.012;2023-10-09T09:23:36;100553.16;;;12.74;41.13
79362;BME280;68830;47.566;19.012;2023-10-09T09:26:38;100541.91;;;13.08;40.90
79362;BME280;68830;47.566;19.012;2023-10-09T09:29:47;100534.25;;;13.58;40.27
79362;BME280;68830;47.566;19.012;2023-10-09T09:32:55;100537.16;;;13.65;40.68
79362;BME280;68830;47.566;19.012;2023-10-09T09:36:17;100537.56;;;13.96;41.99
79362;BME280;68830;47.566;19.012;2023-10-09T09:39:21;100542.25;;;14.28;41.25
79362;BME280;68830;47.566;19.012;2023-10-09T09:42:43;100537.56;;;13.96;40.26
79362;BME280;68830;47.566;19.012;2023-10-09T09:45:52;100515.63;;;14.02;40.70
79362;BME280;68830;47.566;19.012;2023-10-09T09:48:55;100518.97;;;14.04;40.79
79362;BME280;68830;47.566;19.012;2023-10-09T09:52:03;100529.84;;;14.11;41.46
79362;BME280;68830;47.566;19.012;2023-10-09T09:55:11;100528.75;;;13.95;40.54
79362;BME280;68830;47.566;19.012;2023-10-09T09:58:20;100526.44;;;14.00;41.58
79362;BME280;68830;47.566;19.012;2023-10-09T10:01:28;100521.88;;;14.19;39.88
79362;BME280;68830;47.566;19.012;2023-10-09T10:04:32;100515.63;;;14.02;42.06
79362;BME280;68830;47.566;19.012;2023-10-09T10:07:40;100491.22;;;14.15;41.20
79362;BME280;68830;47.566;19.012;2023-10-09T10:10:47;100453.19;;;14.39;39.85
79362;BME280;68830;47.566;19.012;2023-10-09T10:13:55;100423.91;;;14.04;40.20
79362;BME280;68830;47.566;19.012;2023-10-09T10:17:04;100448.38;;;13.74;42.28
79362;BME280;68830;47.566;19.012;2023-10-09T10:20:27;100424.84;;;13.61;41.93
79362;BME280;68830;47.566;19.012;2023-10-09T10:23:34;100421.16;;;13.54;40.84
79362;BME280;68830;47.566;19.012;2023-10-09T10:26:38;100407.34;;;13.85;42.66
79362;BME280;68830;47.566;19.012;2023-10-09T10:29:41;100395.22;;;14.32;40.92
79362;BME280;68830;47.566;19.012;2023-10-09T10:32:53;100372.41;;;14.38;40.22
79362;BME280;68830;47.566;19.012;2023-10-09T10:35:55;100364.59;;;14.36;39.12
79362;BME280;68830;47.566;19.012;2023-10-09T10:39:01;100369.00;;;14.70;39.90
79362;BME280;68830;47.566;19.012;2023-10-09T10:42:06;100362.03;;;14.77;40.39
79362;BME280;68830;47.566;19.012;2023-10-09T10:45:17;100349.03;;;14.99;39.65
79362;BME280;68830;47.566;19.012;2023-10-09T10:48:35;100319.66;;;15.23;40.01
79362;BME280;68830;47.566;19.012;2023-10-09T10:51:41;100349.03;;;14.90;38.76
79362;BME280;68830;47.566;19.012;2023-10-09T10:54:47;100356.53;;;15.11;39.29
79362;BME280;68830;47.566;19.012;2023-10-09T10:57:49;100348.34;;;15.13;38.81
79362;BME280;68830;47.566;19.012;2023-10-09T11:01:12;100337.19;;;15.34;38.23
79362;BME280;68830;47.566;19.012;2023-10-09T11:04:17;100342.81;;;15.47;38.14
79362;BME280;68830;47.566;19.012;2023-10-09T11:07:34;100346.19;;;15.24;38.10
79362;BME280;68830;47.566;19.012;2023-10-09T11:10:38;100319.53;;;14.92;39.17
79362;BME280;68830;47.566;19.012;2023-10-09T11:13:51;100307.69;;;15.19;39.22
79362;BME280;68830;47.566;19.012;2023-10-09T11:17:00;100373.00;;;15.39;39.48
79362;BME280;68830;47.566;19.012;2023-10-09T11:20:07;100404.22;;;15.47;38.42
79362;BME280;68830;47.566;19.012;2023-10-09T11:23:34;100367.72;;;15.07;38.13
79362;BME280;68830;47.566;19.012;2023-10-09T11:26:38;100296.09;;;15.43;41.81
79362;BME280;68830;47.566;19.012;2023-10-09T11:29:48;100277.91;;;15.94;38.80
79362;BME280;68830;47.566;19.012;2023-10-09T11:33:04;100354.81;;;15.43;38.36
79362;BME280;68830;47.566;19.012;2023-10-09T11:36:07;100366.44;;;15.82;38.92
79362;BME280;68830;47.566;19.012;2023-10-09T11:39:24;100395.69;;;15.51;39.32
79362;BME280;68830;47.566;19.012;2023-10-09T11:42:35;100361.63;;;15.70;38.71
79362;BME280;68830;47.566;19.012;2023-10-09T11:45:37;100350.78;;;15.71;38.05
79362;BME280;68830;47.566;19.012;2023-10-09T11:48:39;100327.63;;;15.47;38.94
79362;BME280;68830;47.566;19.012;2023-10-09T11:52:10;100336.22;;;15.82;39.75
79362;BME280;68830;47.566;19.012;2023-10-09T11:55:15;100308.56;;;15.67;41.77
79362;BME280;68830;47.566;19.012;2023-10-09T11:58:20;100304.75;;;15.45;42.20
79362;BME280;68830;47.566;19.012;2023-10-09T12:01:25;100291.94;;;15.48;49.43
79362;BME280;68830;47.566;19.012;2023-10-09T12:04:37;100275.78;;;15.34;53.77
79362;BME280;68830;47.566;19.012;2023-10-09T12:07:47;100290.88;;;14.94;49.69
79362;BME280;68830;47.566;19.012;2023-10-09T12:10:56;100291.88;;;14.60;50.25
79362;BME280;68830;47.566;19.012;2023-10-09T12:14:01;100278.06;;;14.57;59.62
79362;BME280;68830;47.566;19.012;2023-10-09T12:17:04;100284.03;;;14.43;54.91
79362;BME280;68830;47.566;19.012;2023-10-09T12:20:10;100280.84;;;14.31;53.34
79362;BME280;68830;47.566;19.012;2023-10-09T12:23:23;100275.00;;;14.35;53.71
79362;BME280;68830;47.566;19.012;2023-10-09T12:26:29;100261.22;;;14.64;58.69
79362;BME280;68830;47.566;19.012;2023-10-09T12:29:38;100243.56;;;14.63;61.80
79362;BME280;68830;47.566;19.012;2023-10-09T12:32:49;100259.22;;;14.75;56.85
79362;BME280;68830;47.566;19.012;2023-10-09T12:35:51;100246.38;;;14.70;56.41
79362;BME280;68830;47.566;19.012;2023-10-09T12:38:53;100250.75;;;14.71;57.07
79362;BME280;68830;47.566;19.012;2023-10-09T12:42:00;100260.25;;;14.57;57.70
79362;BME280;68830;47.566;19.012;2023-10-09T12:45:12;100269.00;;;14.33;56.46
79362;BME280;68830;47.566;19.012;2023-10-09T12:48:14;100261.72;;;14.44;68.31
79362;BME280;68830;47.566;19.012;2023-10-09T12:51:17;100266.50;;;14.32;64.04
79362;BME280;68830;47.566;19.012;2023-10-09T12:54:19;100278.31;;;14.21;63.81
79362;BME280;68830;47.566;19.012;2023-10-09T12:57:33;100264.69;;;14.32;66.36
79362;BME280;68830;47.566;19.012;2023-10-09T13:00:37;100246.19;;;14.31;66.74
79362;BME280;68830;47.566;19.012;2023-10-09T13:03:45;100260.00;;;14.18;71.10
79362;BME280;68830;47.566;19.012;2023-10-09T13:06:51;100271.47;;;14.02;69.00
79362;BME280;68830;47.566;19.012;2023-10-09T13:09:56;100256.97;;;14.05;69.76
79362;BME280;68830;47.566;19.012;2023-10-09T13:13:10;100262.47;;;14.03;69.86
79362;BME280;68830;47.566;19.012;2023-10-09T13:16:17;100258.16;;;14.02;72.62
79362;BME280;68830;47.566;19.012;2023-10-09T13:19:25;100260.44;;;13.89;71.94
79362;BME280;68830;47.566;19.012;2023-10-09T13:22:28;100260.25;;;13.83;75.81
79362;BME280;68830;47.566;19.012;2023-10-09T13:25:32;100256.56;;;13.67;78.14
79362;BME280;68830;47.566;19.012;2023-10-09T13:28:41;100243.81;;;13.45;89.16
79362;BME280;68830;47.566;19.012;2023-10-09T13:31:45;100244.63;;;13.37;83.03
79362;BME280;68830;47.566;19.012;2023-10-09T13:34:50;100233.09;;;13.29;88.03
79362;BME280;68830;47.566;19.012;2023-10-09T13:37:52;100240.69;;;12.90;99.20
79362;BME280;68830;47.566;19.012;2023-10-09T13:40:57;100242.03;;;12.94;98.04
79362;BME280;68830;47.566;19.012;2023-10-09T13:44:03;100253.41;;;12.86;100.00
79362;BME280;68830;47.566;19.012;2023-10-09T13:47:06;100250.31;;;12.91;100.00
79362;BME280;68830;47.566;19.012;2023-10-09T13:50:10;100259.22;;;12.81;99.68
79362;BME280;68830;47.566;19.012;2023-10-09T13:53:13;100245.75;;;12.83;100.00
79362;BME280;68830;47.566;19.012;2023-10-09T13:56:18;100251.34;;;12.72;100.00
79362;BME280;68830;47.566;19.012;2023-10-09T13:59:21;100232.88;;;12.88;100.00
79362;BME280;68830;47.566;19.012;2023-10-09T14:02:26;100212.94;;;12.92;100.00
79362;BME280;68830;47.566;19.012;2023-10-09T14:05:30;100194.59;;;12.81;100.00
79362;BME280;68830;47.566;19.012;2023-10-09T14:08:33;100204.19;;;12.74;100.00
79362;BME280;68830;47.566;19.012;2023-10-09T14:11:35;100198.06;;;12.73;100.00
79362;BME280;68830;47.566;19.012;2023-10-09T14:14:41;100198.59;;;12.85;100.00
79362;BME280;68830;47.566;19.012;2023-10-09T14:17:50;100190.81;;;12.57;100.00
79362;BME280;68830;47.566;19.012;2023-10-09T14:21:01;100184.38;;;12.68;100.00
79362;BME280;68830;47.566;19.012;2023-10-09T14:24:07;100185.91;;;12.45;100.00
79362;BME280;68830;47.566;19.012;2023-10-09T14:27:22;100193.88;;;12.45;100.00
79362;BME280;68830;47.566;19.012;2023-10-09T14:30:27;100209.84;;;12.53;100.00
79362;BME280;68830;47.566;19.012;2023-10-09T14:33:35;100209.19;;;12.33;100.00
79362;BME280;68830;47.566;19.012;2023-10-09T14:36:38;100206.47;;;12.25;100.00
79362;BME280;68830;47.566;19.012;2023-10-09T14:39:46;100217.09;;;12.25;100.00
79362;BME280;68830;47.566;19.012;2023-10-09T14:42:51;100218.75;;;12.44;100.00
79362;BME280;68830;47.566;19.012;2023-10-09T14:45:58;100217.00;;;12.35;100.00
79362;BME280;68830;47.566;19.012;2023-10-09T14:49:02;100205.91;;;12.39;100.00
79362;BME280;68830;47.566;19.012;2023-10-09T14:52:07;100213.03;;;12.13;100.00
79362;BME280;68830;47.566;19.012;2023-10-09T14:55:11;100224.31;;;11.97;100.00
79362;BME280;68830;47.566;19.012;2023-10-09T14:58:13;100203.69;;;12.26;100.00
79362;BME280;68830;47.566;19.012;2023-10-09T15:01:17;100205.72;;;12.15;100.00
79362;BME280;68830;47.566;19.012;2023-10-09T15:04:23;100206.47;;;12.07;100.00
79362;BME280;68830;47.566;19.012;2023-10-09T15:07:27;100205.94;;;12.04;100.00
79362;BME280;68830;47.566;19.012;2023-10-09T15:10:45;100207.63;;;11.87;100.00
79362;BME280;68830;47.566;19.012;2023-10-09T15:13:49;100187.22;;;12.05;100.00
79362;BME280;68830;47.566;19.012;2023-10-09T15:16:52;100174.94;;;12.04;100.00
79362;BME280;68830;47.566;19.012;2023-10-09T15:19:57;100180.88;;;11.98;100.00
79362;BME280;68830;47.566;19.012;2023-10-09T15:22:59;100187.75;;;11.91;100.00
79362;BME280;68830;47.566;19.012;2023-10-09T15:26:03;100196.63;;;11.82;100.00
79362;BME280;68830;47.566;19.012;2023-10-09T15:29:09;100200.81;;;11.75;100.00
79362;BME280;68830;47.566;19.012;2023-10-09T15:32:11;100196.19;;;11.77;100.00
79362;BME280;68830;47.566;19.012;2023-10-09T15:35:19;100190.19;;;11.57;100.00
79362;BME280;68830;47.566;19.012;2023-10-09T15:38:21;100183.00;;;11.67;100.00
79362;BME280;68830;47.566;19.012;2023-10-09T15:41:24;100175.22;;;11.65;100.00
79362;BME280;68830;47.566;19.012;2023-10-09T15:44:26;100177.94;;;11.74;100.00
79362;BME280;68830;47.566;19.012;2023-10-09T15:47:29;100174.94;;;11.86;100.00
79362;BME280;68830;47.566;19.012;2023-10-09T15:50:33;100171.28;;;11.87;100.00
79362;BME280;68830;47.566;19.012;2023-10-09T15:53:37;100167.34;;;11.91;100.00
79362;BME280;68830;47.566;19.012;2023-10-09T15:56:40;100159.38;;;11.91;100.00
79362;BME280;68830;47.566;19.012;2023-10-09T15:59:50;100147.03;;;11.82;100.00
79362;BME280;68830;47.566;19.012;2023-10-09T16:02:52;100156.41;;;11.77;100.00
79362;BME280;68830;47.566;19.012;2023-10-09T16:05:58;100169.81;;;11.57;100.00
79362;BME280;68830;47.566;19.012;2023-10-09T16:09:00;100185.00;;;11.37;100.00
79362;BME280;68830;47.566;19.012;2023-10-09T16:12:03;100190.50;;;11.26;100.00